sensor_id;sensor_type;location;lat;lon;timestamp;temperature;humidity
11221;DHT22;8517;53.546;10.104;2022-12-05T00:01:18;7.10;99.90
11221;DHT22;8517;53.546;10.104;2022-12-05T00:03:45;7.20;99.90
11221;DHT22;8517;53.546;10.104;2022-12-05T00:06:12;7.20;99.90
11221;DHT22;8517;53.546;10.104;2022-12-05T00:08:39;7.20;99.90
11221;DHT22;8517;53.546;10.104;2022-12-05T00:11:10;7.20;99.90
11221;DHT22;8517;53.546;10.104;2022-12-05T00:13:39;7.20;99.90
11221;DHT22;8517;53.546;10.104;2022-12-05T00:16:08;7.20;99.90
11221;DHT22;8517;53.546;10.104;2022-12-05T00:18:35;7.20;99.90
11221;DHT22;8517;53.546;10.104;2022-12-05T00:21:02;7.20;99.90
11221;DHT22;8517;53.546;10.104;2022-12-05T00:23:29;7.20;99.90
11221;DHT22;8517;53.546;10.104;2022-12-05T00:25:56;7.20;99.90
11221;DHT22;8517;53.546;10.104;2022-12-05T00:28:26;7.20;99.90
11221;DHT22;8517;53.546;10.104;2022-12-05T00:30:55;7.20;99.90
11221;DHT22;8517;53.546;10.104;2022-12-05T00:33:22;7.20;99.90
11221;DHT22;8517;53.546;10.104;2022-12-05T00:35:48;7.10;99.90
11221;DHT22;8517;53.546;10.104;2022-12-05T00:38:15;7.10;99.90
11221;DHT22;8517;53.546;10.104;2022-12-05T00:40:42;7.10;99.90
11221;DHT22;8517;53.546;10.104;2022-12-05T00:43:09;7.10;99.90
11221;DHT22;8517;53.546;10.104;2022-12-05T00:45:36;7.10;99.90
11221;DHT22;8517;53.546;10.104;2022-12-05T00:48:04;7.20;99.90
11221;DHT22;8517;53.546;10.104;2022-12-05T00:50:31;7.20;99.90
11221;DHT22;8517;53.546;10.104;2022-12-05T00:52:58;7.20;99.90
11221;DHT22;8517;53.546;10.104;2022-12-05T00:55:25;7.20;99.90
11221;DHT22;8517;53.546;10.104;2022-12-05T00:57:51;7.20;99.90
11221;DHT22;8517;53.546;10.104;2022-12-05T01:00:19;7.20;99.90
11221;DHT22;8517;53.546;10.104;2022-12-05T01:02:46;7.20;99.90
11221;DHT22;8517;53.546;10.104;2022-12-05T01:05:14;7.20;99.90
11221;DHT22;8517;53.546;10.104;2022-12-05T01:07:41;7.20;99.90
11221;DHT22;8517;53.546;10.104;2022-12-05T01:10:08;7.20;99.90
11221;DHT22;8517;53.546;10.104;2022-12-05T01:12:34;7.20;99.90
11221;DHT22;8517;53.546;10.104;2022-12-05T01:15:01;7.20;99.90
11221;DHT22;8517;53.546;10.104;2022-12-05T01:17:28;7.20;99.90
11221;DHT22;8517;53.546;10.104;2022-12-05T01:19:55;7.20;99.90
11221;DHT22;8517;53.546;10.104;2022-12-05T01:22:23;7.30;99.90
11221;DHT22;8517;53.546;10.104;2022-12-05T01:24:50;7.20;99.90
11221;DHT22;8517;53.546;10.104;2022-12-05T01:27:17;7.20;99.90
11221;DHT22;8517;53.546;10.104;2022-12-05T01:29:44;7.20;99.90
11221;DHT22;8517;53.546;10.104;2022-12-05T01:32:11;7.20;99.90
11221;DHT22;8517;53.546;10.104;2022-12-05T01:34:37;7.20;99.90
11221;DHT22;8517;53.546;10.104;2022-12-05T01:37:04;7.30;99.90
11221;DHT22;8517;53.546;10.104;2022-12-05T01:39:32;7.30;99.90
11221;DHT22;8517;53.546;10.104;2022-12-05T01:41:59;7.30;99.90
11221;DHT22;8517;53.546;10.104;2022-12-05T01:45:02;7.30;99.90
11221;DHT22;8517;53.546;10.104;2022-12-05T01:47:31;7.30;99.90
11221;DHT22;8517;53.546;10.104;2022-12-05T01:49:59;7.30;99.90
11221;DHT22;8517;53.546;10.104;2022-12-05T01:52:28;7.30;99.90
11221;DHT22;8517;53.546;10.104;2022-12-05T01:55:00;7.30;99.90
11221;DHT22;8517;53.546;10.104;2022-12-05T01:57:27;7.30;99.90
11221;DHT22;8517;53.546;10.104;2022-12-05T01:59:58;7.40;99.90
11221;DHT22;8517;53.546;10.104;2022-12-05T02:02:26;7.40;99.90
11221;DHT22;8517;53.546;10.104;2022-12-05T02:04:59;7.40;99.90
11221;DHT22;8517;53.546;10.104;2022-12-05T02:07:27;7.40;99.90
11221;DHT22;8517;53.546;10.104;2022-12-05T02:09:54;7.40;99.90
11221;DHT22;8517;53.546;10.104;2022-12-05T02:12:23;7.40;99.90
11221;DHT22;8517;53.546;10.104;2022-12-05T02:15:01;7.40;99.90
11221;DHT22;8517;53.546;10.104;2022-12-05T02:17:35;7.40;99.90
11221;DHT22;8517;53.546;10.104;2022-12-05T02:20:26;7.40;99.90
11221;DHT22;8517;53.546;10.104;2022-12-05T02:23:25;7.40;99.90
11221;DHT22;8517;53.546;10.104;2022-12-05T02:31:49;7.50;99.90
11221;DHT22;8517;53.546;10.104;2022-12-05T02:34:21;7.50;99.90
11221;DHT22;8517;53.546;10.104;2022-12-05T02:36:54;7.50;99.90
11221;DHT22;8517;53.546;10.104;2022-12-05T02:39:26;7.40;99.90
11221;DHT22;8517;53.546;10.104;2022-12-05T02:41:58;7.50;99.90
11221;DHT22;8517;53.546;10.104;2022-12-05T02:44:31;7.50;99.90
11221;DHT22;8517;53.546;10.104;2022-12-05T02:47:02;7.50;99.90
11221;DHT22;8517;53.546;10.104;2022-12-05T02:49:31;7.50;99.90
11221;DHT22;8517;53.546;10.104;2022-12-05T02:52:02;7.50;99.90
11221;DHT22;8517;53.546;10.104;2022-12-05T02:54:34;7.50;99.90
11221;DHT22;8517;53.546;10.104;2022-12-05T02:57:02;7.50;99.90
11221;DHT22;8517;53.546;10.104;2022-12-05T02:59:30;7.50;99.90
11221;DHT22;8517;53.546;10.104;2022-12-05T03:01:57;7.50;99.90
11221;DHT22;8517;53.546;10.104;2022-12-05T03:04:25;7.50;99.90
11221;DHT22;8517;53.546;10.104;2022-12-05T03:06:54;7.50;99.90
11221;DHT22;8517;53.546;10.104;2022-12-05T03:09:27;7.50;99.90
11221;DHT22;8517;53.546;10.104;2022-12-05T03:12:03;7.50;99.90
11221;DHT22;8517;53.546;10.104;2022-12-05T03:14:33;7.40;99.90
11221;DHT22;8517;53.546;10.104;2022-12-05T03:17:05;7.40;99.90
11221;DHT22;8517;53.546;10.104;2022-12-05T03:19:43;7.40;99.90
11221;DHT22;8517;53.546;10.104;2022-12-05T03:22:18;7.40;99.90
11221;DHT22;8517;53.546;10.104;2022-12-05T03:24:47;7.40;99.90
11221;DHT22;8517;53.546;10.104;2022-12-05T03:27:20;7.40;99.90
11221;DHT22;8517;53.546;10.104;2022-12-05T03:29:51;7.40;99.90
11221;DHT22;8517;53.546;10.104;2022-12-05T03:32:22;7.40;99.90
11221;DHT22;8517;53.546;10.104;2022-12-05T03:35:00;7.40;99.90
11221;DHT22;8517;53.546;10.104;2022-12-05T03:37:34;7.40;99.90
11221;DHT22;8517;53.546;10.104;2022-12-05T03:40:10;7.40;99.90
11221;DHT22;8517;53.546;10.104;2022-12-05T03:42:46;7.50;99.90
11221;DHT22;8517;53.546;10.104;2022-12-05T03:45:18;7.50;99.90
11221;DHT22;8517;53.546;10.104;2022-12-05T03:47:51;7.50;99.90
11221;DHT22;8517;53.546;10.104;2022-12-05T03:50:26;7.50;99.90
11221;DHT22;8517;53.546;10.104;2022-12-05T03:52:56;7.50;99.90
11221;DHT22;8517;53.546;10.104;2022-12-05T03:55:26;7.50;99.90
11221;DHT22;8517;53.546;10.104;2022-12-05T03:57:57;7.40;99.90
11221;DHT22;8517;53.546;10.104;2022-12-05T04:00:26;7.50;99.90
11221;DHT22;8517;53.546;10.104;2022-12-05T04:03:01;7.50;99.90
11221;DHT22;8517;53.546;10.104;2022-12-05T04:05:37;7.50;99.90
11221;DHT22;8517;53.546;10.104;2022-12-05T04:08:07;7.50;99.90
11221;DHT22;8517;53.546;10.104;2022-12-05T04:10:38;7.50;99.90
11221;DHT22;8517;53.546;10.104;2022-12-05T04:13:16;7.50;99.90
11221;DHT22;8517;53.546;10.104;2022-12-05T04:15:48;7.50;99.90
11221;DHT22;8517;53.546;10.104;2022-12-05T04:18:35;7.50;99.90
11221;DHT22;8517;53.546;10.104;2022-12-05T04:21:05;7.50;99.90
11221;DHT22;8517;53.546;10.104;2022-12-05T04:23:49;7.40;99.90
11221;DHT22;8517;53.546;10.104;2022-12-05T04:26:43;7.40;99.90
11221;DHT22;8517;53.546;10.104;2022-12-05T04:29:16;7.40;99.90
11221;DHT22;8517;53.546;10.104;2022-12-05T04:31:48;7.40;99.90
11221;DHT22;8517;53.546;10.104;2022-12-05T04:34:18;7.30;99.90
11221;DHT22;8517;53.546;10.104;2022-12-05T04:36:53;7.30;99.90
11221;DHT22;8517;53.546;10.104;2022-12-05T04:39:26;7.30;99.90
11221;DHT22;8517;53.546;10.104;2022-12-05T04:41:57;7.20;99.90
11221;DHT22;8517;53.546;10.104;2022-12-05T04:44:28;7.30;99.90
11221;DHT22;8517;53.546;10.104;2022-12-05T04:46:59;7.20;99.90
11221;DHT22;8517;53.546;10.104;2022-12-05T04:49:28;7.20;99.90
11221;DHT22;8517;53.546;10.104;2022-12-05T04:52:00;7.20;99.90
11221;DHT22;8517;53.546;10.104;2022-12-05T04:54:31;7.20;99.90
11221;DHT22;8517;53.546;10.104;2022-12-05T04:57:04;7.20;99.90
11221;DHT22;8517;53.546;10.104;2022-12-05T04:59:33;7.20;99.90
11221;DHT22;8517;53.546;10.104;2022-12-05T05:02:05;7.10;99.90
11221;DHT22;8517;53.546;10.104;2022-12-05T05:04:36;7.10;99.90
11221;DHT22;8517;53.546;10.104;2022-12-05T05:07:06;7.20;99.90
11221;DHT22;8517;53.546;10.104;2022-12-05T05:09:34;7.20;99.90
11221;DHT22;8517;53.546;10.104;2022-12-05T05:12:01;7.10;99.90
11221;DHT22;8517;53.546;10.104;2022-12-05T05:14:28;7.20;99.90
11221;DHT22;8517;53.546;10.104;2022-12-05T05:16:56;7.20;99.90
11221;DHT22;8517;53.546;10.104;2022-12-05T05:19:23;7.20;99.90
11221;DHT22;8517;53.546;10.104;2022-12-05T05:21:51;7.20;99.90
11221;DHT22;8517;53.546;10.104;2022-12-05T05:24:19;7.20;99.90
11221;DHT22;8517;53.546;10.104;2022-12-05T05:26:48;7.20;99.90
11221;DHT22;8517;53.546;10.104;2022-12-05T05:29:15;7.20;99.90
11221;DHT22;8517;53.546;10.104;2022-12-05T05:31:42;7.20;99.90
11221;DHT22;8517;53.546;10.104;2022-12-05T05:34:10;7.20;99.90
11221;DHT22;8517;53.546;10.104;2022-12-05T05:36:40;7.20;99.90
11221;DHT22;8517;53.546;10.104;2022-12-05T05:39:11;7.20;99.90
11221;DHT22;8517;53.546;10.104;2022-12-05T05:41:39;7.20;99.90
11221;DHT22;8517;53.546;10.104;2022-12-05T05:44:06;7.20;99.90
11221;DHT22;8517;53.546;10.104;2022-12-05T05:46:34;7.20;99.90
11221;DHT22;8517;53.546;10.104;2022-12-05T05:49:02;7.20;99.90
11221;DHT22;8517;53.546;10.104;2022-12-05T05:51:29;7.20;99.90
11221;DHT22;8517;53.546;10.104;2022-12-05T05:53:57;7.20;99.90
11221;DHT22;8517;53.546;10.104;2022-12-05T05:56:24;7.20;99.90
11221;DHT22;8517;53.546;10.104;2022-12-05T05:58:57;7.10;99.90
11221;DHT22;8517;53.546;10.104;2022-12-05T06:01:24;7.10;99.90
11221;DHT22;8517;53.546;10.104;2022-12-05T06:03:52;7.10;99.90
11221;DHT22;8517;53.546;10.104;2022-12-05T06:06:20;7.20;99.90
11221;DHT22;8517;53.546;10.104;2022-12-05T06:08:47;7.10;99.90
11221;DHT22;8517;53.546;10.104;2022-12-05T06:11:15;7.10;99.90
11221;DHT22;8517;53.546;10.104;2022-12-05T06:13:45;7.10;99.90
11221;DHT22;8517;53.546;10.104;2022-12-05T06:16:15;7.10;99.90
11221;DHT22;8517;53.546;10.104;2022-12-05T06:18:43;7.10;99.90
11221;DHT22;8517;53.546;10.104;2022-12-05T06:21:10;7.10;99.90
11221;DHT22;8517;53.546;10.104;2022-12-05T06:23:38;7.10;99.90
11221;DHT22;8517;53.546;10.104;2022-12-05T06:26:08;7.10;99.90
11221;DHT22;8517;53.546;10.104;2022-12-05T06:28:35;7.10;99.90
11221;DHT22;8517;53.546;10.104;2022-12-05T06:31:06;7.10;99.90
11221;DHT22;8517;53.546;10.104;2022-12-05T06:33:35;7.10;99.90
11221;DHT22;8517;53.546;10.104;2022-12-05T06:36:04;7.00;99.90
11221;DHT22;8517;53.546;10.104;2022-12-05T06:38:32;7.00;99.90
11221;DHT22;8517;53.546;10.104;2022-12-05T06:40:59;7.00;99.90
11221;DHT22;8517;53.546;10.104;2022-12-05T06:43:29;7.00;99.90
11221;DHT22;8517;53.546;10.104;2022-12-05T06:45:56;7.00;99.90
11221;DHT22;8517;53.546;10.104;2022-12-05T06:48:23;7.00;99.90
11221;DHT22;8517;53.546;10.104;2022-12-05T06:50:52;7.00;99.90
11221;DHT22;8517;53.546;10.104;2022-12-05T06:53:19;7.00;99.90
11221;DHT22;8517;53.546;10.104;2022-12-05T06:55:54;6.90;99.90
11221;DHT22;8517;53.546;10.104;2022-12-05T06:58:22;6.90;99.90
11221;DHT22;8517;53.546;10.104;2022-12-05T07:00:49;6.90;99.90
11221;DHT22;8517;53.546;10.104;2022-12-05T07:03:33;6.80;99.90
11221;DHT22;8517;53.546;10.104;2022-12-05T07:06:02;6.80;99.90
11221;DHT22;8517;53.546;10.104;2022-12-05T07:08:29;6.70;99.90
11221;DHT22;8517;53.546;10.104;2022-12-05T07:10:56;6.80;99.90
11221;DHT22;8517;53.546;10.104;2022-12-05T07:13:23;6.80;99.90
11221;DHT22;8517;53.546;10.104;2022-12-05T07:15:50;6.80;99.90
11221;DHT22;8517;53.546;10.104;2022-12-05T07:18:17;6.80;99.90
11221;DHT22;8517;53.546;10.104;2022-12-05T07:20:44;6.80;99.90
11221;DHT22;8517;53.546;10.104;2022-12-05T07:23:13;6.80;99.90
11221;DHT22;8517;53.546;10.104;2022-12-05T07:25:40;6.80;99.90
11221;DHT22;8517;53.546;10.104;2022-12-05T07:28:07;6.70;99.90
11221;DHT22;8517;53.546;10.104;2022-12-05T07:30:34;6.80;99.90
11221;DHT22;8517;53.546;10.104;2022-12-05T07:33:09;6.70;99.90
11221;DHT22;8517;53.546;10.104;2022-12-05T07:35:36;6.70;99.90
11221;DHT22;8517;53.546;10.104;2022-12-05T07:38:02;6.70;99.90
11221;DHT22;8517;53.546;10.104;2022-12-05T07:40:31;6.70;99.90
11221;DHT22;8517;53.546;10.104;2022-12-05T07:42:57;6.70;99.90
11221;DHT22;8517;53.546;10.104;2022-12-05T07:45:24;6.70;99.90
11221;DHT22;8517;53.546;10.104;2022-12-05T07:47:51;6.70;99.90
11221;DHT22;8517;53.546;10.104;2022-12-05T07:50:18;6.70;99.90
11221;DHT22;8517;53.546;10.104;2022-12-05T07:52:45;6.70;99.90
11221;DHT22;8517;53.546;10.104;2022-12-05T07:55:14;6.70;99.90
11221;DHT22;8517;53.546;10.104;2022-12-05T07:57:43;6.70;99.90
11221;DHT22;8517;53.546;10.104;2022-12-05T08:00:10;6.70;99.90
11221;DHT22;8517;53.546;10.104;2022-12-05T08:02:37;6.70;99.90
11221;DHT22;8517;53.546;10.104;2022-12-05T08:05:05;6.60;99.90
11221;DHT22;8517;53.546;10.104;2022-12-05T08:07:32;6.60;99.90
11221;DHT22;8517;53.546;10.104;2022-12-05T08:09:59;6.60;99.90
11221;DHT22;8517;53.546;10.104;2022-12-05T08:12:26;6.60;99.90
11221;DHT22;8517;53.546;10.104;2022-12-05T08:14:54;6.60;99.90
11221;DHT22;8517;53.546;10.104;2022-12-05T08:17:21;6.60;99.90
11221;DHT22;8517;53.546;10.104;2022-12-05T08:19:48;6.50;99.90
11221;DHT22;8517;53.546;10.104;2022-12-05T08:22:14;6.60;99.90
11221;DHT22;8517;53.546;10.104;2022-12-05T08:24:41;6.50;99.90
11221;DHT22;8517;53.546;10.104;2022-12-05T08:27:08;6.50;99.90
11221;DHT22;8517;53.546;10.104;2022-12-05T08:29:38;6.50;99.90
11221;DHT22;8517;53.546;10.104;2022-12-05T08:32:06;6.50;99.90
11221;DHT22;8517;53.546;10.104;2022-12-05T08:34:33;6.50;99.90
11221;DHT22;8517;53.546;10.104;2022-12-05T08:36:59;6.50;99.90
11221;DHT22;8517;53.546;10.104;2022-12-05T08:39:26;6.40;99.90
11221;DHT22;8517;53.546;10.104;2022-12-05T08:41:53;6.40;99.90
11221;DHT22;8517;53.546;10.104;2022-12-05T08:44:20;6.40;99.90
11221;DHT22;8517;53.546;10.104;2022-12-05T08:46:48;6.40;99.90
11221;DHT22;8517;53.546;10.104;2022-12-05T08:49:17;6.30;99.90
11221;DHT22;8517;53.546;10.104;2022-12-05T08:51:44;6.30;99.90
11221;DHT22;8517;53.546;10.104;2022-12-05T08:54:11;6.30;99.90
11221;DHT22;8517;53.546;10.104;2022-12-05T08:56:38;6.20;99.90
11221;DHT22;8517;53.546;10.104;2022-12-05T08:59:06;6.20;99.90
11221;DHT22;8517;53.546;10.104;2022-12-05T09:01:33;6.20;99.90
11221;DHT22;8517;53.546;10.104;2022-12-05T09:04:09;6.10;99.90
11221;DHT22;8517;53.546;10.104;2022-12-05T09:06:40;6.10;99.90
11221;DHT22;8517;53.546;10.104;2022-12-05T09:09:08;6.10;99.90
11221;DHT22;8517;53.546;10.104;2022-12-05T09:11:38;6.00;99.90
11221;DHT22;8517;53.546;10.104;2022-12-05T09:14:08;6.00;99.90
11221;DHT22;8517;53.546;10.104;2022-12-05T09:16:36;6.00;99.90
11221;DHT22;8517;53.546;10.104;2022-12-05T09:19:04;6.00;99.90
11221;DHT22;8517;53.546;10.104;2022-12-05T09:21:46;5.90;99.90
11221;DHT22;8517;53.546;10.104;2022-12-05T09:24:13;5.90;99.90
11221;DHT22;8517;53.546;10.104;2022-12-05T09:26:41;5.90;99.90
11221;DHT22;8517;53.546;10.104;2022-12-05T09:29:07;5.80;99.90
11221;DHT22;8517;53.546;10.104;2022-12-05T09:31:34;5.80;99.90
11221;DHT22;8517;53.546;10.104;2022-12-05T09:34:02;5.80;99.90
11221;DHT22;8517;53.546;10.104;2022-12-05T09:36:31;5.80;99.90
11221;DHT22;8517;53.546;10.104;2022-12-05T09:39:01;5.80;99.90
11221;DHT22;8517;53.546;10.104;2022-12-05T09:41:45;5.70;99.90
11221;DHT22;8517;53.546;10.104;2022-12-05T09:44:44;5.70;99.90
11221;DHT22;8517;53.546;10.104;2022-12-05T09:47:27;5.70;99.90
11221;DHT22;8517;53.546;10.104;2022-12-05T09:49:57;5.60;99.90
11221;DHT22;8517;53.546;10.104;2022-12-05T09:52:28;5.60;99.90
11221;DHT22;8517;53.546;10.104;2022-12-05T09:55:02;5.60;99.90
11221;DHT22;8517;53.546;10.104;2022-12-05T10:00:49;5.60;99.90
11221;DHT22;8517;53.546;10.104;2022-12-05T10:03:23;5.60;99.90
11221;DHT22;8517;53.546;10.104;2022-12-05T10:06:01;5.60;99.90
11221;DHT22;8517;53.546;10.104;2022-12-05T10:08:36;5.60;99.90
11221;DHT22;8517;53.546;10.104;2022-12-05T10:11:13;5.60;99.90
11221;DHT22;8517;53.546;10.104;2022-12-05T10:13:50;5.60;99.90
11221;DHT22;8517;53.546;10.104;2022-12-05T10:16:22;5.60;99.90
11221;DHT22;8517;53.546;10.104;2022-12-05T10:18:58;5.60;99.90
11221;DHT22;8517;53.546;10.104;2022-12-05T10:21:30;5.60;99.90
11221;DHT22;8517;53.546;10.104;2022-12-05T10:24:02;5.70;99.90
11221;DHT22;8517;53.546;10.104;2022-12-05T10:26:33;5.70;99.90
11221;DHT22;8517;53.546;10.104;2022-12-05T10:32:24;5.70;99.90
11221;DHT22;8517;53.546;10.104;2022-12-05T10:35:01;5.70;99.90
11221;DHT22;8517;53.546;10.104;2022-12-05T10:37:32;5.70;99.90
11221;DHT22;8517;53.546;10.104;2022-12-05T10:39:59;5.80;99.90
11221;DHT22;8517;53.546;10.104;2022-12-05T10:42:30;5.80;99.90
11221;DHT22;8517;53.546;10.104;2022-12-05T10:45:06;5.80;99.90
11221;DHT22;8517;53.546;10.104;2022-12-05T10:47:34;5.80;99.90
11221;DHT22;8517;53.546;10.104;2022-12-05T10:50:04;5.80;99.90
11221;DHT22;8517;53.546;10.104;2022-12-05T10:52:34;5.80;99.90
11221;DHT22;8517;53.546;10.104;2022-12-05T10:55:03;5.80;99.90
11221;DHT22;8517;53.546;10.104;2022-12-05T10:57:32;5.80;99.90
11221;DHT22;8517;53.546;10.104;2022-12-05T11:00:09;5.90;99.90
11221;DHT22;8517;53.546;10.104;2022-12-05T11:02:39;5.90;99.90
11221;DHT22;8517;53.546;10.104;2022-12-05T11:05:06;5.90;99.90
11221;DHT22;8517;53.546;10.104;2022-12-05T11:07:35;5.90;99.90
11221;DHT22;8517;53.546;10.104;2022-12-05T11:10:19;5.80;99.90
11221;DHT22;8517;53.546;10.104;2022-12-05T11:12:48;5.80;99.90
11221;DHT22;8517;53.546;10.104;2022-12-05T11:15:21;5.90;99.90
11221;DHT22;8517;53.546;10.104;2022-12-05T11:18:18;5.80;99.90
11221;DHT22;8517;53.546;10.104;2022-12-05T11:20:45;5.80;99.90
11221;DHT22;8517;53.546;10.104;2022-12-05T11:23:24;5.80;99.90
11221;DHT22;8517;53.546;10.104;2022-12-05T11:25:58;5.80;99.90
11221;DHT22;8517;53.546;10.104;2022-12-05T11:28:34;5.80;99.90
11221;DHT22;8517;53.546;10.104;2022-12-05T11:31:05;5.90;99.90
11221;DHT22;8517;53.546;10.104;2022-12-05T11:33:35;5.90;99.90
11221;DHT22;8517;53.546;10.104;2022-12-05T11:36:08;5.90;99.90
11221;DHT22;8517;53.546;10.104;2022-12-05T11:38:36;5.90;99.90
11221;DHT22;8517;53.546;10.104;2022-12-05T11:41:21;5.90;99.90
11221;DHT22;8517;53.546;10.104;2022-12-05T11:46:51;5.80;99.90
11221;DHT22;8517;53.546;10.104;2022-12-05T11:49:34;5.80;99.90
11221;DHT22;8517;53.546;10.104;2022-12-05T11:52:15;5.80;99.90
11221;DHT22;8517;53.546;10.104;2022-12-05T11:55:00;5.80;99.90
11221;DHT22;8517;53.546;10.104;2022-12-05T12:01:10;5.90;99.90
11221;DHT22;8517;53.546;10.104;2022-12-05T12:04:28;5.90;99.90
11221;DHT22;8517;53.546;10.104;2022-12-05T12:07:08;5.90;99.90
11221;DHT22;8517;53.546;10.104;2022-12-05T12:09:43;5.90;99.90
11221;DHT22;8517;53.546;10.104;2022-12-05T12:12:18;6.00;99.90
11221;DHT22;8517;53.546;10.104;2022-12-05T12:14:57;5.90;99.90
11221;DHT22;8517;53.546;10.104;2022-12-05T12:17:33;5.90;99.90
11221;DHT22;8517;53.546;10.104;2022-12-05T12:20:16;6.00;99.90
11221;DHT22;8517;53.546;10.104;2022-12-05T12:22:58;6.00;99.90
11221;DHT22;8517;53.546;10.104;2022-12-05T12:25:35;5.90;99.90
11221;DHT22;8517;53.546;10.104;2022-12-05T12:28:14;5.90;99.90
11221;DHT22;8517;53.546;10.104;2022-12-05T12:30:56;5.90;99.90
11221;DHT22;8517;53.546;10.104;2022-12-05T12:33:31;5.90;99.90
11221;DHT22;8517;53.546;10.104;2022-12-05T12:36:06;5.90;99.90
11221;DHT22;8517;53.546;10.104;2022-12-05T12:38:50;6.00;99.90
11221;DHT22;8517;53.546;10.104;2022-12-05T12:41:36;6.00;99.90
11221;DHT22;8517;53.546;10.104;2022-12-05T12:44:37;5.90;99.90
11221;DHT22;8517;53.546;10.104;2022-12-05T12:47:09;5.90;99.90
11221;DHT22;8517;53.546;10.104;2022-12-05T12:49:50;6.00;99.90
11221;DHT22;8517;53.546;10.104;2022-12-05T12:52:22;6.00;99.90
11221;DHT22;8517;53.546;10.104;2022-12-05T12:54:59;6.00;99.90
11221;DHT22;8517;53.546;10.104;2022-12-05T12:57:38;5.90;99.90
11221;DHT22;8517;53.546;10.104;2022-12-05T13:00:21;6.00;99.90
11221;DHT22;8517;53.546;10.104;2022-12-05T13:02:51;6.00;99.90
11221;DHT22;8517;53.546;10.104;2022-12-05T13:05:31;6.00;99.90
11221;DHT22;8517;53.546;10.104;2022-12-05T13:08:03;5.90;99.90
11221;DHT22;8517;53.546;10.104;2022-12-05T13:10:34;6.00;99.90
11221;DHT22;8517;53.546;10.104;2022-12-05T13:13:05;6.00;99.90
11221;DHT22;8517;53.546;10.104;2022-12-05T13:15:37;5.90;99.90
11221;DHT22;8517;53.546;10.104;2022-12-05T13:18:09;5.90;99.90
11221;DHT22;8517;53.546;10.104;2022-12-05T13:20:39;5.90;99.90
11221;DHT22;8517;53.546;10.104;2022-12-05T13:23:06;5.90;99.90
11221;DHT22;8517;53.546;10.104;2022-12-05T13:25:38;6.00;99.90
11221;DHT22;8517;53.546;10.104;2022-12-05T13:28:15;6.00;99.90
11221;DHT22;8517;53.546;10.104;2022-12-05T13:30:47;5.90;99.90
11221;DHT22;8517;53.546;10.104;2022-12-05T13:33:26;6.00;99.90
11221;DHT22;8517;53.546;10.104;2022-12-05T13:36:02;6.00;99.90
11221;DHT22;8517;53.546;10.104;2022-12-05T13:38:47;5.90;99.90
11221;DHT22;8517;53.546;10.104;2022-12-05T13:41:39;5.90;99.90
11221;DHT22;8517;53.546;10.104;2022-12-05T13:44:31;5.90;99.90
11221;DHT22;8517;53.546;10.104;2022-12-05T13:47:04;6.00;99.90
11221;DHT22;8517;53.546;10.104;2022-12-05T13:49:40;5.90;99.90
11221;DHT22;8517;53.546;10.104;2022-12-05T13:52:12;6.00;99.90
11221;DHT22;8517;53.546;10.104;2022-12-05T13:54:43;6.00;99.90
11221;DHT22;8517;53.546;10.104;2022-12-05T13:57:44;5.90;99.90
11221;DHT22;8517;53.546;10.104;2022-12-05T14:00:26;5.90;99.90
11221;DHT22;8517;53.546;10.104;2022-12-05T14:02:55;6.00;99.90
11221;DHT22;8517;53.546;10.104;2022-12-05T14:05:45;5.90;99.90
11221;DHT22;8517;53.546;10.104;2022-12-05T14:11:20;5.90;99.90
11221;DHT22;8517;53.546;10.104;2022-12-05T14:13:47;5.80;99.90
11221;DHT22;8517;53.546;10.104;2022-12-05T14:16:44;5.80;99.90
11221;DHT22;8517;53.546;10.104;2022-12-05T14:19:29;5.80;99.90
11221;DHT22;8517;53.546;10.104;2022-12-05T14:22:08;5.80;99.90
11221;DHT22;8517;53.546;10.104;2022-12-05T14:24:47;5.70;99.90
11221;DHT22;8517;53.546;10.104;2022-12-05T14:27:22;5.70;99.90
11221;DHT22;8517;53.546;10.104;2022-12-05T14:29:58;5.70;99.90
11221;DHT22;8517;53.546;10.104;2022-12-05T14:32:50;5.70;99.90
11221;DHT22;8517;53.546;10.104;2022-12-05T14:35:38;5.70;99.90
11221;DHT22;8517;53.546;10.104;2022-12-05T14:38:06;5.70;99.90
11221;DHT22;8517;53.546;10.104;2022-12-05T14:40:45;5.70;99.90
11221;DHT22;8517;53.546;10.104;2022-12-05T14:43:18;5.70;99.90
11221;DHT22;8517;53.546;10.104;2022-12-05T14:45:56;5.70;99.90
11221;DHT22;8517;53.546;10.104;2022-12-05T14:48:28;5.70;99.90
11221;DHT22;8517;53.546;10.104;2022-12-05T14:50:56;5.70;99.90
11221;DHT22;8517;53.546;10.104;2022-12-05T14:53:33;5.70;99.90
11221;DHT22;8517;53.546;10.104;2022-12-05T14:56:13;5.70;99.90
11221;DHT22;8517;53.546;10.104;2022-12-05T14:58:48;5.60;99.90
11221;DHT22;8517;53.546;10.104;2022-12-05T15:01:20;5.60;99.90
11221;DHT22;8517;53.546;10.104;2022-12-05T15:04:03;5.60;99.90
11221;DHT22;8517;53.546;10.104;2022-12-05T15:06:33;5.60;99.90
11221;DHT22;8517;53.546;10.104;2022-12-05T15:09:05;5.60;99.90
11221;DHT22;8517;53.546;10.104;2022-12-05T15:11:33;5.60;99.90
11221;DHT22;8517;53.546;10.104;2022-12-05T15:14:13;5.60;99.90
11221;DHT22;8517;53.546;10.104;2022-12-05T15:16:44;5.60;99.90
11221;DHT22;8517;53.546;10.104;2022-12-05T15:19:16;5.60;99.90
11221;DHT22;8517;53.546;10.104;2022-12-05T15:21:46;5.60;99.90
11221;DHT22;8517;53.546;10.104;2022-12-05T15:24:16;5.60;99.90
11221;DHT22;8517;53.546;10.104;2022-12-05T15:26:44;5.60;99.90
11221;DHT22;8517;53.546;10.104;2022-12-05T15:29:16;5.50;99.90
11221;DHT22;8517;53.546;10.104;2022-12-05T15:31:50;5.60;99.90
11221;DHT22;8517;53.546;10.104;2022-12-05T15:34:21;5.60;99.90
11221;DHT22;8517;53.546;10.104;2022-12-05T15:36:59;5.50;99.90
11221;DHT22;8517;53.546;10.104;2022-12-05T15:39:28;5.50;99.90
11221;DHT22;8517;53.546;10.104;2022-12-05T15:41:56;5.50;99.90
11221;DHT22;8517;53.546;10.104;2022-12-05T15:44:28;5.50;99.90
11221;DHT22;8517;53.546;10.104;2022-12-05T15:46:56;5.40;99.90
11221;DHT22;8517;53.546;10.104;2022-12-05T15:49:27;5.40;99.90
11221;DHT22;8517;53.546;10.104;2022-12-05T15:52:12;5.40;99.90
11221;DHT22;8517;53.546;10.104;2022-12-05T15:54:44;5.40;99.90
11221;DHT22;8517;53.546;10.104;2022-12-05T15:57:15;5.30;99.90
11221;DHT22;8517;53.546;10.104;2022-12-05T15:59:47;5.30;99.90
11221;DHT22;8517;53.546;10.104;2022-12-05T16:02:21;5.30;99.90
11221;DHT22;8517;53.546;10.104;2022-12-05T16:04:53;5.30;99.90
11221;DHT22;8517;53.546;10.104;2022-12-05T16:07:23;5.20;99.90
11221;DHT22;8517;53.546;10.104;2022-12-05T16:09:55;5.20;99.90
11221;DHT22;8517;53.546;10.104;2022-12-05T16:12:24;5.20;99.90
11221;DHT22;8517;53.546;10.104;2022-12-05T16:14:59;5.10;99.90
11221;DHT22;8517;53.546;10.104;2022-12-05T16:17:29;5.10;99.90
11221;DHT22;8517;53.546;10.104;2022-12-05T16:20:10;5.10;99.90
11221;DHT22;8517;53.546;10.104;2022-12-05T16:22:42;5.10;99.90
11221;DHT22;8517;53.546;10.104;2022-12-05T16:25:14;5.10;99.90
11221;DHT22;8517;53.546;10.104;2022-12-05T16:27:57;5.10;99.90
11221;DHT22;8517;53.546;10.104;2022-12-05T16:30:27;5.10;99.90
11221;DHT22;8517;53.546;10.104;2022-12-05T16:33:02;5.10;99.90
11221;DHT22;8517;53.546;10.104;2022-12-05T16:35:34;5.20;99.90
11221;DHT22;8517;53.546;10.104;2022-12-05T16:38:08;5.20;99.90